createdAt,value
2022-10-06T06:06:41.333Z,44.38
2022-10-06T06:06:53.365Z,44.37
2022-10-06T06:07:05.738Z,44.37
2022-10-06T06:07:19.000Z,44.37
2022-10-06T06:07:31.316Z,44.38
2022-10-06T06:07:45.573Z,44.38
2022-10-06T06:07:58.813Z,44.37
2022-10-06T06:08:12.980Z,44.36
2022-10-06T06:08:26.761Z,44.39
2022-10-06T06:08:38.924Z,44.38
2022-10-06T06:08:51.817Z,44.37
2022-10-06T06:09:05.854Z,44.35
2022-10-06T06:09:23.181Z,44.37
2022-10-06T06:09:36.702Z,44.37
2022-10-06T06:09:49.772Z,44.36
2022-10-06T06:10:05.691Z,44.37
2022-10-06T06:10:18.818Z,44.37
2022-10-06T06:10:31.882Z,44.35
2022-10-06T06:10:44.387Z,44.36
2022-10-06T06:10:58.625Z,44.35
2022-10-06T06:11:11.607Z,44.35
2022-10-06T06:11:29.604Z,44.35
2022-10-06T06:11:43.726Z,44.33
2022-10-06T06:11:57.745Z,44.34
2022-10-06T06:12:11.279Z,44.34
2022-10-06T06:12:23.328Z,44.34
2022-10-06T06:12:36.663Z,44.33
2022-10-06T06:12:51.270Z,44.31
2022-10-06T06:13:05.130Z,44.32
2022-10-06T06:13:17.825Z,44.32
2022-10-06T06:13:29.870Z,44.28
2022-10-06T06:13:42.799Z,44.29
2022-10-06T06:14:01.003Z,44.3
2022-10-06T06:14:15.669Z,44.3
2022-10-06T06:14:29.119Z,44.31
2022-10-06T06:14:41.804Z,44.3
2022-10-06T06:14:56.518Z,44.32
2022-10-06T06:15:10.942Z,44.28
2022-10-06T06:15:23.499Z,44.3
2022-10-06T06:15:35.825Z,44.3
2022-10-06T06:15:50.526Z,44.3
2022-10-06T06:16:05.796Z,44.3
2022-10-06T06:16:21.093Z,44.3
2022-10-06T06:16:34.338Z,44.31
2022-10-06T06:16:46.768Z,44.3
2022-10-06T06:17:00.840Z,44.3
2022-10-06T06:17:13.878Z,44.28
2022-10-06T06:17:30.529Z,44.3
2022-10-06T06:17:43.196Z,44.28
2022-10-06T06:18:00.229Z,44.31
2022-10-06T06:18:12.990Z,44.33
2022-10-06T06:18:29.201Z,44.33
2022-10-06T06:18:40.778Z,44.33
2022-10-06T06:18:55.062Z,44.33
2022-10-06T06:19:09.444Z,44.33
2022-10-06T06:19:24.900Z,44.33
2022-10-06T06:19:35.701Z,44.34
2022-10-06T06:19:47.641Z,44.36
2022-10-06T06:20:03.298Z,44.35
2022-10-06T06:20:25.677Z,44.37
2022-10-06T06:20:38.447Z,44.37
2022-10-06T06:20:53.436Z,44.36
2022-10-06T06:21:08.795Z,44.38
2022-10-06T06:21:22.731Z,44.36
2022-10-06T06:21:35.692Z,44.38
2022-10-06T06:21:49.141Z,44.36
2022-10-06T06:22:04.497Z,44.39
2022-10-06T06:22:19.811Z,44.39
2022-10-06T06:22:33.230Z,44.39
2022-10-06T06:22:45.421Z,44.41
2022-10-06T06:22:58.515Z,44.39
2022-10-06T06:23:11.170Z,44.38
2022-10-06T06:23:24.458Z,44.38
2022-10-06T06:23:41.055Z,44.41
2022-10-06T06:23:56.449Z,44.4
2022-10-06T06:24:08.955Z,44.4
2022-10-06T06:24:22.861Z,44.41
2022-10-06T06:24:36.395Z,44.41
2022-10-06T06:24:53.481Z,44.4
2022-10-06T06:25:06.503Z,44.41
2022-10-06T06:25:22.571Z,44.41
2022-10-06T06:25:35.138Z,44.41
2022-10-06T06:25:47.858Z,44.41
2022-10-06T06:26:02.414Z,44.41
2022-10-06T06:26:13.991Z,44.42
2022-10-06T06:26:26.296Z,44.41
2022-10-06T06:26:41.069Z,44.4
2022-10-06T06:26:53.346Z,44.4
2022-10-06T06:27:06.627Z,44.4
2022-10-06T06:27:18.659Z,44.41
2022-10-06T06:27:31.911Z,44.4
2022-10-06T06:27:47.864Z,44.41
2022-10-06T06:28:00.471Z,44.4
2022-10-06T06:28:13.079Z,44.41
2022-10-06T06:28:29.238Z,44.39
2022-10-06T06:28:41.721Z,44.41
2022-10-06T06:28:54.021Z,44.4
2022-10-06T06:29:06.878Z,44.39
2022-10-06T06:29:21.563Z,44.4
2022-10-06T06:29:36.295Z,44.38
2022-10-06T06:29:49.165Z,44.39
2022-10-06T06:30:02.332Z,44.39
2022-10-06T06:30:17.367Z,44.39
2022-10-06T06:30:36.147Z,44.37
2022-10-06T06:30:48.537Z,44.38
2022-10-06T06:31:02.299Z,44.38
2022-10-06T06:31:19.869Z,44.37
2022-10-06T06:31:28.025Z,44.39
2022-10-06T06:31:42.966Z,44.38
2022-10-06T06:31:56.602Z,44.39
2022-10-06T06:32:10.829Z,44.37
2022-10-06T06:32:23.714Z,44.37
2022-10-06T06:32:38.914Z,44.35
2022-10-06T06:32:51.613Z,44.37
2022-10-06T06:33:05.310Z,44.37
2022-10-06T06:33:17.701Z,44.37
2022-10-06T06:33:31.147Z,44.37
2022-10-06T06:33:43.453Z,44.35
2022-10-06T06:33:57.608Z,44.35
2022-10-06T06:34:09.899Z,44.35
2022-10-06T06:34:23.180Z,44.35
2022-10-06T06:34:37.145Z,44.33
2022-10-06T06:34:50.167Z,44.34
2022-10-06T06:35:04.710Z,44.34
2022-10-06T06:35:18.647Z,44.34
2022-10-06T06:35:31.235Z,44.33
2022-10-06T06:35:45.430Z,44.34
2022-10-06T06:35:58.635Z,44.34
2022-10-06T06:36:13.654Z,44.33
2022-10-06T06:36:31.990Z,44.32
2022-10-06T06:36:46.081Z,44.32
2022-10-06T06:37:05.301Z,44.3
2022-10-06T06:37:15.486Z,44.3
2022-10-06T06:37:29.585Z,44.31
2022-10-06T06:37:42.516Z,44.32
2022-10-06T06:37:54.893Z,44.31
2022-10-06T06:38:11.804Z,44.3
2022-10-06T06:38:29.191Z,44.29
2022-10-06T06:38:41.246Z,44.29
2022-10-06T06:38:54.207Z,44.29
2022-10-06T06:39:10.408Z,44.28
2022-10-06T06:39:27.864Z,44.3
2022-10-06T06:39:42.613Z,44.28
2022-10-06T06:39:58.035Z,44.28
2022-10-06T06:40:11.726Z,44.26
2022-10-06T06:40:24.333Z,44.26
2022-10-06T06:40:38.672Z,44.25
2022-10-06T06:40:50.705Z,44.24
2022-10-06T06:41:03.579Z,44.24
2022-10-06T06:41:18.096Z,44.22
2022-10-06T06:41:32.701Z,44.21
2022-10-06T06:41:45.083Z,44.21
2022-10-06T06:42:01.031Z,44.19
2022-10-06T06:42:13.935Z,44.17
2022-10-06T06:42:27.110Z,44.18
2022-10-06T06:42:40.786Z,44.17
2022-10-06T06:42:54.628Z,44.15
2022-10-06T06:43:07.005Z,44.13
2022-10-06T06:43:23.869Z,44.13
2022-10-06T06:43:44.614Z,44.11
2022-10-06T06:44:00.998Z,44.09
2022-10-06T06:44:12.990Z,44.09
2022-10-06T06:44:25.991Z,44.07
2022-10-06T06:44:39.806Z,44.06
2022-10-06T06:44:58.476Z,44.02
2022-10-06T06:45:21.675Z,44.01
2022-10-06T06:45:35.553Z,43.98
2022-10-06T06:45:49.767Z,43.97
2022-10-06T06:46:02.289Z,43.95
2022-10-06T06:46:15.595Z,43.92
2022-10-06T06:46:29.438Z,43.91
2022-10-06T06:46:42.887Z,43.9
2022-10-06T06:46:57.584Z,43.89
2022-10-06T06:47:20.883Z,43.86
2022-10-06T06:47:35.181Z,43.83
2022-10-06T06:47:49.357Z,43.8
2022-10-06T06:48:02.114Z,43.81
2022-10-06T06:48:14.695Z,43.79
2022-10-06T06:48:28.323Z,43.77
2022-10-06T06:48:40.090Z,43.76
2022-10-06T06:48:57.209Z,43.73
2022-10-06T06:49:10.857Z,43.71
2022-10-06T06:49:24.407Z,43.71
2022-10-06T06:49:38.963Z,43.67
2022-10-06T06:49:50.990Z,43.66
2022-10-06T06:50:03.909Z,43.64
2022-10-06T06:50:19.580Z,43.62
2022-10-06T06:50:32.180Z,43.62
2022-10-06T06:50:44.944Z,43.6
2022-10-06T06:50:57.426Z,43.58
2022-10-06T06:51:18.113Z,43.55
2022-10-06T06:51:40.640Z,43.52
2022-10-06T06:51:58.953Z,43.49
2022-10-06T06:52:28.156Z,43.47
2022-10-06T06:52:45.965Z,43.44
2022-10-06T06:53:02.390Z,43.42
2022-10-06T06:53:16.230Z,43.41
2022-10-06T06:53:31.938Z,43.38
2022-10-06T06:53:46.619Z,43.36
2022-10-06T06:54:02.201Z,43.34
2022-10-06T06:54:15.627Z,43.34
2022-10-06T06:54:34.054Z,43.3
2022-10-06T06:54:49.684Z,43.28
2022-10-06T06:55:01.606Z,43.27
2022-10-06T06:55:15.274Z,43.24
2022-10-06T06:55:28.092Z,43.22
2022-10-06T06:55:46.948Z,43.2
2022-10-06T06:56:03.852Z,43.19
2022-10-06T06:56:16.191Z,43.17
2022-10-06T06:56:29.633Z,43.15
2022-10-06T06:56:42.746Z,43.13
2022-10-06T06:57:10.420Z,43.09
2022-10-06T06:57:24.908Z,43.08
2022-10-06T06:57:37.521Z,43.06
2022-10-06T06:57:52.308Z,43.03
2022-10-06T06:58:05.813Z,43.02
2022-10-06T06:58:18.768Z,43.01
2022-10-06T06:58:41.110Z,42.97
2022-10-06T06:59:07.778Z,42.94
2022-10-06T06:59:22.170Z,42.93
2022-10-06T06:59:36.161Z,42.9
2022-10-06T06:59:48.375Z,42.9
2022-10-06T07:00:05.498Z,42.86
2022-10-06T07:00:19.183Z,42.85
2022-10-06T07:00:35.879Z,42.83
2022-10-06T07:00:52.247Z,42.81
2022-10-06T07:01:13.168Z,42.79
2022-10-06T07:01:27.786Z,42.76
2022-10-06T07:01:41.148Z,42.74
2022-10-06T07:01:58.800Z,42.74
2022-10-06T07:02:19.804Z,42.72
2022-10-06T07:02:33.405Z,42.7
2022-10-06T07:02:49.921Z,42.67
2022-10-06T07:03:06.381Z,42.66
2022-10-06T07:03:45.217Z,42.64
2022-10-06T07:03:57.275Z,42.62
2022-10-06T07:04:08.245Z,42.55
2022-10-06T07:04:22.625Z,42.55
2022-10-06T07:04:35.552Z,42.55
2022-10-06T07:04:49.511Z,42.52
2022-10-06T07:05:01.996Z,42.52
2022-10-06T07:05:17.033Z,42.49
2022-10-06T07:05:33.022Z,42.48
2022-10-06T07:05:48.103Z,42.44
2022-10-06T07:06:07.931Z,42.44
2022-10-06T07:06:22.610Z,42.42
2022-10-06T07:06:33.578Z,42.4
2022-10-06T07:06:51.823Z,42.38
2022-10-06T07:07:11.912Z,42.36
2022-10-06T07:07:26.013Z,42.34
2022-10-06T07:07:45.599Z,42.32
2022-10-06T07:08:00.155Z,42.3
2022-10-06T07:08:12.658Z,42.29
2022-10-06T07:08:25.705Z,42.27
2022-10-06T07:08:42.381Z,42.25
2022-10-06T07:08:54.791Z,42.24
2022-10-06T07:09:08.705Z,42.23
2022-10-06T07:09:28.116Z,42.22
2022-10-06T07:09:43.376Z,42.21
2022-10-06T07:10:05.854Z,42.21
2022-10-06T07:10:18.077Z,42.19
2022-10-06T07:10:32.311Z,42.2
2022-10-06T07:10:47.003Z,42.19
2022-10-06T07:11:08.956Z,42.19
2022-10-06T07:11:24.384Z,42.16
2022-10-06T07:11:36.852Z,42.18
2022-10-06T07:11:52.010Z,42.18
2022-10-06T07:12:15.352Z,42.16
2022-10-06T07:12:27.956Z,42.18
2022-10-06T07:12:41.774Z,42.16
2022-10-06T07:13:32.556Z,42.18
2022-10-06T07:13:45.886Z,42.15
2022-10-06T07:13:59.399Z,42.17
2022-10-06T07:14:23.912Z,42.18
2022-10-06T07:14:39.614Z,42.17
2022-10-06T07:14:56.637Z,42.15
2022-10-06T07:15:08.771Z,42.17
2022-10-06T07:15:22.250Z,42.18
2022-10-06T07:15:37.064Z,42.18
2022-10-06T07:15:57.078Z,42.17
2022-10-06T07:16:11.634Z,42.17
2022-10-06T07:16:27.922Z,42.17
2022-10-06T07:16:41.509Z,42.17
2022-10-06T07:16:54.922Z,42.16
2022-10-06T07:17:12.879Z,42.14
2022-10-06T07:17:26.765Z,42.17
2022-10-06T07:18:01.408Z,42.14
2022-10-06T07:18:19.700Z,42.14
2022-10-06T07:18:32.292Z,42.15
2022-10-06T07:18:50.722Z,42.13
2022-10-06T07:19:14.626Z,42.13
2022-10-06T07:19:27.742Z,42.11
2022-10-06T07:19:45.230Z,42.12
2022-10-06T07:20:00.660Z,42.1
2022-10-06T07:20:15.080Z,42.1
2022-10-06T07:20:27.945Z,42.09
2022-10-06T07:20:40.634Z,42.08
2022-10-06T07:20:56.869Z,42.09
2022-10-06T07:21:31.645Z,42.08
2022-10-06T07:21:51.680Z,42.07
2022-10-06T07:22:20.785Z,42.05
2022-10-06T07:22:45.111Z,42.06
2022-10-06T07:22:58.021Z,42.05
2022-10-06T07:23:12.680Z,42.05
2022-10-06T07:23:25.195Z,42.06
2022-10-06T07:23:39.820Z,42.06
2022-10-06T07:23:54.507Z,42.08
2022-10-06T07:24:32.626Z,42.06
2022-10-06T07:24:51.767Z,42.06
2022-10-06T07:25:06.776Z,42.08
2022-10-06T07:25:25.947Z,42.08
2022-10-06T07:25:46.980Z,42.09
2022-10-06T07:25:59.438Z,42.08
2022-10-06T07:26:20.932Z,42.09
2022-10-06T07:26:36.378Z,42.1
2022-10-06T07:26:50.340Z,42.08
2022-10-06T07:27:03.789Z,42.09
2022-10-06T07:27:18.099Z,42.09
2022-10-06T07:27:40.876Z,42.1
2022-10-06T07:28:02.748Z,42.09
2022-10-06T07:28:17.177Z,42.1
2022-10-06T07:28:34.709Z,42.11
2022-10-06T07:29:10.582Z,42.12
2022-10-06T07:29:26.382Z,42.12
2022-10-06T07:29:52.424Z,42.14
2022-10-06T07:30:04.941Z,42.14
2022-10-06T07:30:17.530Z,42.15
2022-10-06T07:30:30.975Z,42.14
2022-10-06T07:30:54.780Z,42.15
2022-10-06T07:31:08.224Z,42.16
2022-10-06T07:31:21.657Z,42.16
2022-10-06T07:31:49.223Z,42.16
2022-10-06T07:32:08.317Z,42.17
2022-10-06T07:32:29.033Z,42.18
2022-10-06T07:32:48.081Z,42.17
2022-10-06T07:33:03.886Z,42.17
2022-10-06T07:33:30.318Z,42.19
2022-10-06T07:33:48.230Z,42.19
2022-10-06T07:34:02.040Z,42.19
2022-10-06T07:34:17.780Z,42.19
2022-10-06T07:34:33.616Z,42.19
2022-10-06T07:34:48.706Z,42.2
2022-10-06T07:35:01.858Z,42.2
2022-10-06T07:35:19.582Z,42.2
2022-10-06T07:35:32.923Z,42.21
2022-10-06T07:35:52.314Z,42.2
2022-10-06T07:36:04.871Z,42.21
2022-10-06T07:36:24.407Z,42.21
2022-10-06T07:36:39.369Z,42.21
2022-10-06T07:36:54.860Z,42.22
2022-10-06T07:37:14.565Z,42.21
2022-10-06T07:37:40.357Z,42.21
2022-10-06T07:37:59.861Z,42.23
2022-10-06T07:38:33.717Z,42.21
2022-10-06T07:38:52.200Z,42.23
2022-10-06T07:39:22.265Z,42.23
2022-10-06T07:39:40.980Z,42.24
2022-10-06T07:40:06.540Z,42.22
2022-10-06T07:40:29.369Z,42.25
2022-10-06T07:41:14.651Z,42.23
2022-10-06T07:41:20.373Z,42.23
2022-10-06T07:41:25.692Z,42.25
2022-10-06T07:41:43.018Z,42.25
2022-10-06T07:41:58.876Z,42.23
2022-10-06T07:42:11.339Z,42.24
2022-10-06T07:42:31.507Z,42.25
2022-10-06T07:42:45.035Z,42.26
2022-10-06T07:43:04.781Z,42.25
2022-10-06T07:43:30.633Z,42.24
2022-10-06T07:43:57.811Z,42.25
2022-10-06T07:44:15.630Z,42.25
2022-10-06T07:44:35.451Z,42.25
2022-10-06T07:44:56.770Z,42.26
2022-10-06T07:45:09.482Z,42.24
2022-10-06T07:45:22.691Z,42.24
2022-10-06T07:45:41.747Z,42.25
2022-10-06T07:45:57.602Z,42.25
2022-10-06T07:46:11.321Z,42.23
2022-10-06T07:46:27.982Z,42.23
2022-10-06T07:47:01.793Z,42.25
2022-10-06T07:47:15.926Z,42.24
2022-10-06T07:47:31.149Z,42.24
2022-10-06T07:47:46.639Z,42.24
2022-10-06T07:48:00.937Z,42.24
2022-10-06T07:48:18.632Z,42.24
2022-10-06T07:48:42.411Z,42.23
2022-10-06T07:49:15.794Z,42.22
2022-10-06T07:49:41.328Z,42.2
2022-10-06T07:50:03.764Z,42.2
2022-10-06T07:50:22.985Z,42.16
2022-10-06T07:50:44.993Z,42.13
2022-10-06T07:50:58.901Z,42.12
2022-10-06T07:51:11.413Z,42.09
2022-10-06T07:51:27.078Z,42.08
2022-10-06T07:51:39.004Z,42.06
2022-10-06T07:51:51.974Z,42.05
2022-10-06T07:52:13.851Z,42
2022-10-06T07:52:28.067Z,42
2022-10-06T07:52:43.288Z,41.97
2022-10-06T07:53:11.496Z,41.92
2022-10-06T07:53:40.200Z,41.87
2022-10-06T07:53:55.568Z,41.83
2022-10-06T07:54:26.537Z,41.77
2022-10-06T07:54:35.148Z,41.77
2022-10-06T07:54:57.105Z,41.72
2022-10-06T07:55:13.805Z,41.68
2022-10-06T07:55:43.064Z,41.65
2022-10-06T07:56:07.528Z,41.6
2022-10-06T07:56:29.506Z,41.57
2022-10-06T07:57:02.342Z,41.51
2022-10-06T07:57:21.925Z,41.46
2022-10-06T07:57:34.500Z,41.45
2022-10-06T07:57:55.667Z,41.39
2022-10-06T07:58:11.036Z,41.35
2022-10-06T07:58:31.638Z,41.32
2022-10-06T07:58:50.729Z,41.29
2022-10-06T07:59:34.817Z,41.2
2022-10-06T07:59:52.491Z,41.16
2022-10-06T08:00:13.245Z,41.12
2022-10-06T08:00:59.716Z,41.07
2022-10-06T08:01:41.478Z,40.98
2022-10-06T08:02:17.013Z,40.91
2022-10-06T08:02:37.551Z,40.87
2022-10-06T08:02:51.464Z,40.82
2022-10-06T08:03:30.190Z,40.78
2022-10-06T08:03:48.133Z,40.74
2022-10-06T08:04:04.065Z,40.71
2022-10-06T08:04:45.439Z,40.62
2022-10-06T08:05:16.687Z,40.57
2022-10-06T08:05:32.514Z,40.53
2022-10-06T08:05:45.135Z,40.51
2022-10-06T08:06:34.485Z,40.42
2022-10-06T08:07:07.339Z,40.35
2022-10-06T08:07:40.275Z,40.29
2022-10-06T08:07:58.810Z,40.27
2022-10-06T08:08:25.328Z,40.22
2022-10-06T08:08:49.085Z,40.17
2022-10-06T08:08:59.958Z,40.15
2022-10-06T08:09:13.612Z,40.1
2022-10-06T08:09:42.026Z,40.05
2022-10-06T08:09:58.918Z,40.03
2022-10-06T08:10:46.140Z,39.93
2022-10-06T08:11:18.379Z,39.84
2022-10-06T08:11:38.492Z,39.84
2022-10-06T08:12:19.713Z,39.77
2022-10-06T08:13:08.669Z,39.69
2022-10-06T08:13:38.067Z,39.65
2022-10-06T08:13:54.510Z,39.6
2022-10-06T08:14:22.694Z,39.59
2022-10-06T08:14:44.709Z,39.55
2022-10-06T08:15:01.749Z,39.52
2022-10-06T08:15:28.750Z,39.49
2022-10-06T08:15:54.090Z,39.44
2022-10-06T08:16:16.516Z,39.41
2022-10-06T08:16:35.501Z,39.4
2022-10-06T08:17:04.657Z,39.36
2022-10-06T08:17:25.485Z,39.33
2022-10-06T08:17:44.346Z,39.3
2022-10-06T08:18:01.180Z,39.27
2022-10-06T08:18:33.665Z,39.24
2022-10-06T08:18:47.201Z,39.2
2022-10-06T08:19:02.601Z,39.18
2022-10-06T08:19:22.047Z,39.15
2022-10-06T08:19:42.078Z,39.12
2022-10-06T08:19:59.250Z,39.09
2022-10-06T08:20:34.914Z,39.04
2022-10-06T08:20:51.621Z,39.01
2022-10-06T08:21:12.068Z,38.98
2022-10-06T08:21:55.846Z,38.92
2022-10-06T08:22:10.442Z,38.9
2022-10-06T08:22:24.977Z,38.85
2022-10-06T08:22:54.732Z,38.81
2022-10-06T08:23:11.903Z,38.79
2022-10-06T08:23:28.947Z,38.75
2022-10-06T08:23:58.768Z,38.72
2022-10-06T08:24:14.615Z,38.69
2022-10-06T08:24:33.815Z,38.64
2022-10-06T08:25:04.794Z,38.63
2022-10-06T08:25:05.840Z,38.6
2022-10-06T08:25:30.553Z,38.55
2022-10-06T08:25:48.590Z,38.52
2022-10-06T08:26:30.020Z,38.47
2022-10-06T08:27:05.634Z,38.42
2022-10-06T08:27:20.187Z,38.4
2022-10-06T08:27:48.024Z,38.35
2022-10-06T08:28:18.536Z,38.32
2022-10-06T08:28:52.385Z,38.25
2022-10-06T08:29:31.372Z,38.16
2022-10-06T08:29:44.830Z,38.16
2022-10-06T08:29:58.826Z,38.09
2022-10-06T08:30:39.700Z,38.06
2022-10-06T08:30:56.865Z,38.04
2022-10-06T08:31:20.567Z,37.99
2022-10-06T08:31:45.885Z,37.95
2022-10-06T08:32:35.062Z,37.87
2022-10-06T08:33:12.742Z,37.8
2022-10-06T08:34:11.494Z,37.72
2022-10-06T08:34:46.953Z,37.66
2022-10-06T08:35:09.871Z,37.61
2022-10-06T08:35:24.289Z,37.6
2022-10-06T08:36:09.041Z,37.54
2022-10-06T08:36:35.220Z,37.52
2022-10-06T08:37:19.370Z,37.5
2022-10-06T08:37:22.065Z,37.48
2022-10-06T08:37:42.903Z,37.51
2022-10-06T08:38:03.889Z,37.51
2022-10-06T08:38:30.945Z,37.5
2022-10-06T08:38:49.906Z,37.51
2022-10-06T08:39:02.548Z,37.53
2022-10-06T08:39:24.313Z,37.53
2022-10-06T08:39:56.604Z,37.58
2022-10-06T08:40:50.211Z,37.66
2022-10-06T08:41:12.731Z,37.68
2022-10-06T08:41:28.633Z,37.69
2022-10-06T08:41:51.967Z,37.73
2022-10-06T08:42:05.109Z,37.76
2022-10-06T08:42:18.965Z,37.77
2022-10-06T08:42:41.155Z,37.8
2022-10-06T08:42:58.316Z,37.84
2022-10-06T08:43:15.898Z,37.85
2022-10-06T08:43:57.255Z,37.93
2022-10-06T08:44:27.611Z,37.96
2022-10-06T08:44:45.875Z,37.98
2022-10-06T08:45:19.248Z,38.01
2022-10-06T08:45:38.417Z,38.04
2022-10-06T08:46:06.064Z,38.08
2022-10-06T08:46:25.393Z,38.11
2022-10-06T08:46:38.785Z,38.12
2022-10-06T08:47:00.765Z,38.11
2022-10-06T08:47:14.763Z,38.12
2022-10-06T08:47:28.668Z,38.12
2022-10-06T08:48:07.490Z,38.13
2022-10-06T08:48:39.571Z,38.16
2022-10-06T08:48:54.018Z,38.19
2022-10-06T08:49:14.411Z,38.19
2022-10-06T08:49:40.801Z,38.2
2022-10-06T08:50:20.622Z,38.24
2022-10-06T08:50:40.914Z,38.27
2022-10-06T08:51:09.166Z,38.31
2022-10-06T08:51:32.633Z,38.34
2022-10-06T08:51:50.365Z,38.36
2022-10-06T08:52:14.237Z,38.39
2022-10-06T08:52:33.425Z,38.42
2022-10-06T08:52:51.609Z,38.45
2022-10-06T08:53:25.036Z,38.49
2022-10-06T08:53:39.113Z,38.52
2022-10-06T08:54:06.103Z,38.57
2022-10-06T08:54:33.780Z,38.6
2022-10-06T08:54:48.587Z,38.64
2022-10-06T08:55:01.123Z,38.66
2022-10-06T08:55:22.823Z,38.67
2022-10-06T08:55:46.390Z,38.72
2022-10-06T08:56:09.173Z,38.78
2022-10-06T08:57:23.748Z,38.89
2022-10-06T08:57:50.444Z,38.94
2022-10-06T08:58:12.956Z,38.99
2022-10-06T08:58:39.507Z,39.05
2022-10-06T08:59:00.498Z,39.07
2022-10-06T08:59:28.580Z,39.14
2022-10-06T09:00:21.386Z,39.23
2022-10-06T09:01:20.846Z,39.32
2022-10-06T09:02:26.469Z,39.48
2022-10-06T09:02:46.512Z,39.48
2022-10-06T09:03:18.209Z,39.54
2022-10-06T09:03:41.726Z,39.58
2022-10-06T09:04:20.640Z,39.67
2022-10-06T09:04:49.347Z,39.7
2022-10-06T09:05:24.690Z,39.77
2022-10-06T09:05:53.732Z,39.8
2022-10-06T09:06:46.096Z,39.88
2022-10-06T09:06:59.099Z,39.91
2022-10-06T09:07:21.926Z,39.93
2022-10-06T09:07:36.967Z,39.97
2022-10-06T09:07:51.741Z,39.99
2022-10-06T09:08:08.510Z,40.02
2022-10-06T09:08:23.855Z,40.03
2022-10-06T09:08:38.016Z,40.04
2022-10-06T09:09:03.752Z,40.1
2022-10-06T09:09:27.945Z,40.13
2022-10-06T09:09:50.834Z,40.15
2022-10-06T09:10:10.664Z,40.17
2022-10-06T09:10:24.305Z,40.18
2022-10-06T09:11:11.618Z,40.24
2022-10-06T09:11:40.960Z,40.3
2022-10-06T09:12:04.318Z,40.3
2022-10-06T09:12:48.125Z,40.35
2022-10-06T09:13:08.525Z,40.36
2022-10-06T09:13:41.775Z,40.4
2022-10-06T09:14:11.947Z,40.4
2022-10-06T09:14:45.947Z,40.42
2022-10-06T09:17:27.680Z,40.26
2022-10-06T09:18:20.594Z,40.17
2022-10-06T09:18:56.194Z,40.14
2022-10-06T09:19:07.647Z,40.12
2022-10-06T09:19:09.133Z,40.03
2022-10-06T09:19:31.328Z,40
2022-10-06T09:19:43.539Z,39.94
2022-10-06T09:20:08.919Z,39.9
2022-10-06T09:20:43.903Z,39.79
2022-10-06T09:21:08.879Z,39.74
2022-10-06T09:21:22.539Z,39.7
2022-10-06T09:21:41.677Z,39.65
2022-10-06T09:21:56.415Z,39.6
2022-10-06T09:22:18.477Z,39.55
2022-10-06T09:22:40.029Z,39.49
2022-10-06T09:23:50.254Z,39.35
2022-10-06T09:24:10.850Z,39.28
2022-10-06T09:24:47.635Z,39.17
2022-10-06T09:25:05.130Z,39.13
2022-10-06T09:25:17.699Z,39.12
2022-10-06T09:26:02.883Z,39
2022-10-06T09:27:04.529Z,38.87
2022-10-06T09:27:29.575Z,38.84
2022-10-06T09:27:44.483Z,38.8
2022-10-06T09:28:26.631Z,38.77
2022-10-06T09:28:41.892Z,38.77
2022-10-06T09:29:08.211Z,38.73
2022-10-06T09:29:29.808Z,38.73
2022-10-06T09:30:30.256Z,38.73
2022-10-06T09:30:55.542Z,38.73
2022-10-06T09:31:39.691Z,38.77
2022-10-06T09:32:53.692Z,38.8
2022-10-06T09:33:12.907Z,38.82
2022-10-06T09:33:52.053Z,38.83
2022-10-06T09:34:34.061Z,38.82
2022-10-06T09:35:27.766Z,38.8
2022-10-06T09:35:43.108Z,38.79
2022-10-06T09:36:00.061Z,38.77
2022-10-06T09:36:45.750Z,38.73
2022-10-06T09:37:00.315Z,38.7
2022-10-06T09:37:32.096Z,38.66
2022-10-06T09:37:56.912Z,38.59
2022-10-06T09:38:20.139Z,38.54
2022-10-06T09:39:12.302Z,38.47
2022-10-06T09:40:02.970Z,38.3
2022-10-06T09:40:36.769Z,38.26
2022-10-06T09:40:49.491Z,38.2
2022-10-06T09:41:46.953Z,38.08
2022-10-06T09:42:12.912Z,38.01
2022-10-06T09:42:48.916Z,37.9
2022-10-06T09:43:16.163Z,37.84
2022-10-06T09:43:46.349Z,37.75
2022-10-06T09:43:59.257Z,37.73
2022-10-06T09:44:23.695Z,37.65
2022-10-06T09:44:54.227Z,37.58
2022-10-06T09:45:24.588Z,37.49
2022-10-06T09:45:44.849Z,37.46
2022-10-06T09:47:04.733Z,37.22
2022-10-06T09:47:25.507Z,37.16
2022-10-06T09:48:01.899Z,37.06
2022-10-06T09:48:24.939Z,37.02
2022-10-06T09:49:11.818Z,36.93
2022-10-06T09:49:48.052Z,36.85
2022-10-06T09:50:20.954Z,36.78
2022-10-06T09:50:33.186Z,36.76
2022-10-06T09:50:58.643Z,36.73
2022-10-06T09:51:26.573Z,36.68
2022-10-06T09:51:39.782Z,36.66
2022-10-06T09:52:10.843Z,36.59
2022-10-06T09:52:39.528Z,36.53
2022-10-06T09:52:58.402Z,36.48
2022-10-06T09:53:37.486Z,36.41
2022-10-06T09:53:53.074Z,36.41
2022-10-06T09:54:29.162Z,36.34
2022-10-06T09:55:18.702Z,36.25
2022-10-06T09:55:43.937Z,36.24
2022-10-06T09:55:57.467Z,36.23
2022-10-06T09:56:22.594Z,36.15
2022-10-06T09:56:39.842Z,36.1
2022-10-06T09:57:04.146Z,36.09
2022-10-06T09:57:45.153Z,36.01
2022-10-06T09:57:59.701Z,36
2022-10-06T09:58:34.636Z,35.99
2022-10-06T09:59:12.883Z,35.93
2022-10-06T09:59:28.927Z,35.91
2022-10-06T09:59:52.569Z,35.88
2022-10-06T10:00:04.438Z,35.87
2022-10-06T10:00:19.443Z,35.85
2022-10-06T10:00:49.337Z,35.81
2022-10-06T10:01:38.593Z,35.77
2022-10-06T10:02:18.279Z,35.69
2022-10-06T10:02:47.941Z,35.66
2022-10-06T10:03:04.602Z,35.65
2022-10-06T10:03:19.543Z,35.6
2022-10-06T10:04:19.968Z,35.57
2022-10-06T10:04:29.089Z,35.52
2022-10-06T10:05:00.654Z,35.37
2022-10-06T10:05:20.835Z,35.4
2022-10-06T10:05:53.794Z,35.34
2022-10-06T10:06:18.952Z,35.37
2022-10-06T10:06:41.256Z,35.34
2022-10-06T10:07:15.051Z,35.3
2022-10-06T10:07:31.346Z,35.25
2022-10-06T10:07:43.908Z,35.24
2022-10-06T10:08:39.601Z,35.12
2022-10-06T10:09:35.840Z,35.1
2022-10-06T10:10:25.362Z,35.03
2022-10-06T10:11:28.187Z,34.96
2022-10-06T10:11:41.798Z,34.97
2022-10-06T10:11:57.534Z,34.94
2022-10-06T10:12:19.767Z,34.9
2022-10-06T10:12:43.764Z,34.89
2022-10-06T10:13:15.982Z,34.85
2022-10-06T10:13:59.915Z,34.74
2022-10-06T10:14:21.265Z,34.77
2022-10-06T10:14:39.644Z,34.74
2022-10-06T10:14:53.294Z,34.74
2022-10-06T10:15:15.540Z,34.74
2022-10-06T10:15:59.432Z,34.7
2022-10-06T10:16:19.430Z,34.7
2022-10-06T10:16:42.802Z,34.66
2022-10-06T10:17:01.240Z,34.65
2022-10-06T10:17:17.469Z,34.66
2022-10-06T10:17:52.496Z,34.59
2022-10-06T10:18:26.505Z,34.52
2022-10-06T10:18:55.401Z,34.52
2022-10-06T10:19:38.067Z,34.52
2022-10-06T10:20:37.552Z,34.5
2022-10-06T10:20:51.843Z,34.49
2022-10-06T10:21:08.132Z,34.48
2022-10-06T10:21:33.914Z,34.48
2022-10-06T10:21:49.636Z,34.45
2022-10-06T10:22:03.429Z,34.43
2022-10-06T10:22:53.701Z,34.44
2022-10-06T10:23:10.171Z,34.42
2022-10-06T10:23:35.943Z,34.4
2022-10-06T10:23:51.903Z,34.43
2022-10-06T10:24:04.271Z,34.4
2022-10-06T10:24:36.830Z,34.4
2022-10-06T10:24:55.108Z,34.41
2022-10-06T10:25:10.553Z,34.43
2022-10-06T10:25:25.205Z,34.39
2022-10-06T10:25:44.068Z,34.41
2022-10-06T10:26:14.226Z,34.43
2022-10-06T10:26:31.030Z,34.4
2022-10-06T10:26:43.373Z,34.4
2022-10-06T10:26:56.121Z,34.35
2022-10-06T10:27:18.918Z,34.37
2022-10-06T10:27:41.028Z,34.33
2022-10-06T10:28:03.413Z,34.34
2022-10-06T10:28:27.987Z,34.36
2022-10-06T10:29:36.611Z,34.32
2022-10-06T10:29:57.663Z,34.34
2022-10-06T10:30:37.856Z,34.21
2022-10-06T10:30:53.440Z,34.25
2022-10-06T10:31:16.903Z,34.29
2022-10-06T10:31:40.125Z,34.29
2022-10-06T10:32:03.007Z,34.27
2022-10-06T10:32:16.071Z,34.24
2022-10-06T10:32:39.855Z,34.26
2022-10-06T10:33:04.124Z,34.19
2022-10-06T10:34:24.042Z,34.14
2022-10-06T10:34:45.452Z,34.16
2022-10-06T10:35:15.214Z,34.07
2022-10-06T10:35:54.571Z,34.08
2022-10-06T10:36:12.015Z,33.96
2022-10-06T10:36:25.886Z,34.06
2022-10-06T10:36:43.198Z,34.12
2022-10-06T10:37:05.066Z,34.12
2022-10-06T10:37:48.979Z,34.15
2022-10-06T10:40:41.676Z,34.22
2022-10-06T10:40:58.631Z,34.24
2022-10-06T10:41:19.963Z,34.1
2022-10-06T10:41:37.111Z,34.22
2022-10-06T10:41:52.310Z,34.19
2022-10-06T10:42:33.435Z,34.24
2022-10-06T10:42:49.322Z,34.29
2022-10-06T10:43:17.950Z,34.31
2022-10-06T10:44:03.252Z,34.34
2022-10-06T10:45:28.823Z,34.38
2022-10-06T10:46:15.161Z,34.4
2022-10-06T10:46:32.985Z,34.44
2022-10-06T10:46:46.316Z,34.45
2022-10-06T10:47:39.582Z,34.43
2022-10-06T10:48:24.156Z,34.47
2022-10-06T10:48:42.637Z,34.47
2022-10-06T10:49:04.305Z,34.45